Time;durP1;ratioP1;P1;durP2;ratioP2;P2;SDS_P1;SDS_P2;PMS_P1;PMS_P2;Temp;Humidity;BMP_temperature;BMP_pressure;BME280_temperature;BME280_humidity;BME280_pressure;Samples;Min_cycle;Max_cycle;Signal;HPM_P1;HPM_P2
2024/04/11 00:01:05;;;;;;;4.13;2.73;;;;;;;6.34;98.56;99638.63;5564493;25;20275;-78
2024/04/11 00:03:34;;;;;;;4.63;3.10;;;;;;;6.32;98.88;99635.19;5564250;25;20232;-79
2024/04/11 00:06:00;;;;;;;4.47;2.80;;;;;;;6.25;99.11;99628.38;5564277;25;20352;-78
2024/04/11 00:08:28;;;;;;;6.30;2.90;;;;;;;6.20;99.14;99630.28;5564740;25;20648;-79
2024/04/11 00:10:54;;;;;;;2.93;2.67;;;;;;;6.16;99.39;99628.63;5564289;25;20492;-79
2024/04/11 00:13:22;;;;;;;6.37;3.33;;;;;;;6.08;99.95;99620.13;5564692;25;20221;-80
2024/04/11 00:15:53;;;;;;;3.60;3.07;;;;;;;6.05;100.00;99619.34;5564514;25;20288;-80
2024/04/11 00:18:21;;;;;;;3.63;2.90;;;;;;;5.98;100.00;99617.81;5568161;25;20252;-80
2024/04/11 00:20:46;;;;;;;6.37;3.13;;;;;;;5.92;100.00;99613.56;5564049;25;20280;-80
2024/04/11 00:23:15;;;;;;;6.30;2.90;;;;;;;5.89;100.00;99611.03;5564907;25;20806;-80
2024/04/11 00:25:42;;;;;;;3.13;2.30;;;;;;;5.88;100.00;99609.31;5564420;25;20280;-79
2024/04/11 00:28:10;;;;;;;5.17;2.73;;;;;;;5.90;100.00;99604.00;5564512;25;20221;-79
2024/04/11 00:30:35;;;;;;;5.30;2.53;;;;;;;5.92;100.00;99605.69;5564157;25;20357;-79
2024/04/11 00:33:07;;;;;;;4.00;2.40;;;;;;;5.93;100.00;99603.94;5564166;25;20233;-79
2024/04/11 00:35:32;;;;;;;3.43;2.30;;;;;;;5.90;100.00;99610.13;5564273;25;20236;-79
2024/04/11 00:38:01;;;;;;;4.77;2.60;;;;;;;5.92;100.00;99603.06;5564348;25;20217;-80
2024/04/11 00:40:27;;;;;;;6.37;3.10;;;;;;;5.99;100.00;99604.59;5563593;25;20697;-79
2024/04/11 00:42:55;;;;;;;3.90;2.40;;;;;;;5.94;100.00;99605.66;5563938;25;20237;-79
2024/04/11 00:45:20;;;;;;;5.63;2.43;;;;;;;5.87;100.00;99599.69;5566271;25;20233;-79
2024/04/11 00:47:50;;;;;;;6.53;2.90;;;;;;;5.86;100.00;99599.75;5564053;25;20325;-79
2024/04/11 00:50:19;;;;;;;5.80;2.70;;;;;;;5.82;100.00;99599.00;5562495;25;20232;-80
2024/04/11 00:52:49;;;;;;;5.30;2.53;;;;;;;5.80;100.00;99595.53;5563678;25;20337;-80
2024/04/11 00:55:16;;;;;;;4.10;3.00;;;;;;;5.77;100.00;99605.22;5563704;25;20317;-79
2024/04/11 00:57:45;;;;;;;2.77;2.50;;;;;;;5.74;100.00;99606.16;5563935;25;20259;-79
2024/04/11 01:00:11;;;;;;;6.60;3.03;;;;;;;5.69;100.00;99607.19;5563209;25;20711;-79
2024/04/11 01:02:42;;;;;;;4.43;2.87;;;;;;;5.64;100.00;99607.31;5563974;25;20363;-79
2024/04/11 01:05:07;;;;;;;5.57;3.43;;;;;;;5.63;100.00;99607.34;5563345;25;20262;-79
2024/04/11 01:07:40;;;;;;;5.47;3.73;;;;;;;5.62;100.00;99609.09;5563525;25;20224;-79
2024/04/11 01:10:16;;;;;;;5.77;3.37;;;;;;;5.59;100.00;99611.81;5564842;25;20354;-80
2024/04/11 01:12:44;;;;;;;3.20;2.90;;;;;;;5.52;100.00;99607.63;5563777;25;20307;-80
2024/04/11 01:15:11;;;;;;;5.57;2.93;;;;;;;5.52;100.00;99607.63;5564538;25;20597;-80
2024/04/11 01:17:40;;;;;;;4.53;2.70;;;;;;;5.49;100.00;99607.69;5564796;25;20280;-79
2024/04/11 01:20:06;;;;;;;4.07;2.93;;;;;;;5.48;100.00;99608.59;5563230;25;20279;-79
2024/04/11 01:22:42;;;;;;;4.53;2.73;;;;;;;5.42;100.00;99610.50;5563864;25;20359;-79
2024/04/11 01:25:08;;;;;;;3.20;2.63;;;;;;;5.31;100.00;99616.03;5563804;25;20862;-79
2024/04/11 01:27:36;;;;;;;4.63;2.67;;;;;;;5.45;100.00;99616.53;5563454;25;20288;-79
2024/04/11 01:30:02;;;;;;;3.97;2.50;;;;;;;5.35;100.00;99614.19;5562996;25;20364;-79
2024/04/11 01:32:30;;;;;;;3.63;3.13;;;;;;;5.28;100.00;99623.97;5563585;25;20232;-79
2024/04/11 01:34:56;;;;;;;5.33;3.10;;;;;;;5.34;100.00;99618.59;5563462;25;20329;-79
2024/04/11 01:37:24;;;;;;;5.70;2.70;;;;;;;5.31;100.00;99625.66;5563025;25;20233;-79
2024/04/11 01:39:53;;;;;;;4.23;2.70;;;;;;;5.27;100.00;99624.00;5562770;25;20373;-79
2024/04/11 01:42:21;;;;;;;4.17;2.60;;;;;;;5.20;100.00;99636.38;5562791;25;20228;-79
2024/04/11 01:44:47;;;;;;;5.50;3.03;;;;;;;5.19;100.00;99624.19;5564630;25;20776;-79
2024/04/11 01:47:15;;;;;;;3.40;2.50;;;;;;;5.16;100.00;99624.28;5563125;25;20254;-79
2024/04/11 01:49:41;;;;;;;7.97;2.73;;;;;;;5.15;100.00;99622.56;5562696;25;20542;-78
2024/04/11 01:52:09;;;;;;;3.83;2.77;;;;;;;5.16;100.00;99616.41;5562836;25;20266;-79
2024/04/11 01:54:38;;;;;;;5.30;2.97;;;;;;;5.19;100.00;99618.09;5534196;25;20233;-79
2024/04/11 01:57:06;;;;;;;3.90;2.43;;;;;;;5.23;100.00;99610.13;5525807;25;20263;-79
2024/04/11 01:59:35;;;;;;;4.67;2.10;;;;;;;5.17;100.00;99606.78;5525066;25;20491;-79
2024/04/11 02:02:01;;;;;;;3.90;2.67;;;;;;;5.15;100.00;99612.06;5528974;25;20627;-79
2024/04/11 02:04:31;;;;;;;4.67;2.60;;;;;;;5.10;100.00;99611.31;5529628;25;20680;-79
2024/04/11 02:06:57;;;;;;;4.97;3.03;;;;;;;5.06;100.00;99612.28;5529020;25;20929;-79
2024/04/11 02:09:27;;;;;;;5.17;3.27;;;;;;;5.04;100.00;99608.84;5528300;25;20225;-80
2024/04/11 02:11:53;;;;;;;6.30;3.13;;;;;;;5.03;100.00;99603.63;5529182;25;20762;-80
2024/04/11 02:14:24;;;;;;;5.13;3.20;;;;;;;5.05;100.00;99607.94;5528611;25;20314;-80
2024/04/11 02:16:50;;;;;;;5.87;3.30;;;;;;;5.15;100.00;99612.06;5529611;25;20328;-81
2024/04/11 02:19:18;;;;;;;6.73;3.43;;;;;;;5.19;100.00;99608.47;5529855;25;20708;-80
2024/04/11 02:21:44;;;;;;;4.77;3.20;;;;;;;5.12;100.00;99611.28;5528986;25;20337;-80
2024/04/11 02:24:16;;;;;;;7.67;3.40;;;;;;;5.10;100.00;99618.31;5529769;25;20233;-80
2024/04/11 02:26:42;;;;;;;9.03;3.90;;;;;;;5.11;100.00;99614.78;5529948;25;20990;-80
2024/04/11 02:29:11;;;;;;;7.13;3.30;;;;;;;5.05;100.00;99615.81;5530121;25;20263;-80
2024/04/11 02:31:39;;;;;;;4.30;3.27;;;;;;;5.10;100.00;99623.53;5530028;25;20263;-80
2024/04/11 02:34:07;;;;;;;6.13;3.40;;;;;;;5.04;100.00;99619.31;5530010;25;20236;-80
2024/04/11 02:36:34;;;;;;;6.57;3.23;;;;;;;5.13;100.00;99621.72;5529751;25;20288;-80
2024/04/11 02:39:07;;;;;;;8.07;3.60;;;;;;;5.22;100.00;99624.13;5529907;25;20650;-80
2024/04/11 02:41:34;;;;;;;5.27;3.83;;;;;;;5.29;100.00;99623.06;5529591;26;20232;-80
2024/04/11 02:44:04;;;;;;;9.70;3.43;;;;;;;5.34;100.00;99622.94;5531113;25;20589;-80
2024/04/11 02:46:30;;;;;;;7.10;3.63;;;;;;;5.34;100.00;99623.81;5530914;25;20241;-80
2024/04/11 02:49:05;;;;;;;6.07;3.17;;;;;;;5.26;100.00;99623.13;5531002;25;20222;-80
2024/04/11 02:51:30;;;;;;;6.73;3.53;;;;;;;5.19;100.00;99624.19;5530462;25;20598;-80
2024/04/11 02:53:59;;;;;;;8.43;3.40;;;;;;;5.27;100.00;99617.00;5530992;25;20233;-80
2024/04/11 02:56:26;;;;;;;6.10;3.47;;;;;;;5.33;100.00;99626.47;5530308;25;20281;-81
2024/04/11 02:58:55;;;;;;;3.47;3.10;;;;;;;5.26;100.00;99615.25;5530176;25;20225;-80
2024/04/11 03:01:21;;;;;;;4.70;3.30;;;;;;;5.17;100.00;99625.13;5529462;25;20337;-80
2024/04/11 03:03:49;;;;;;;4.10;3.30;;;;;;;5.14;100.00;99626.03;5530027;25;20251;-80
2024/04/11 03:06:18;;;;;;;4.70;3.23;;;;;;;5.00;100.00;99628.16;5530492;25;20273;-80
2024/04/11 03:08:46;;;;;;;4.40;3.13;;;;;;;4.96;100.00;99633.50;5530234;25;20236;-80
2024/04/11 03:11:12;;;;;;;5.27;3.50;;;;;;;4.86;100.00;99634.59;5530206;25;20724;-80
2024/04/11 03:13:42;;;;;;;4.07;3.07;;;;;;;4.83;100.00;99640.75;5529272;25;20304;-80
2024/04/11 03:16:11;;;;;;;5.93;3.43;;;;;;;4.92;100.00;99640.56;5529996;25;20296;-80
2024/04/11 03:18:39;;;;;;;7.10;3.40;;;;;;;4.92;100.00;99643.19;5530108;25;20607;-80
2024/04/11 03:21:05;;;;;;;6.00;3.53;;;;;;;4.93;100.00;99641.41;5529765;25;20284;-80
2024/04/11 03:23:37;;;;;;;6.30;3.30;;;;;;;4.89;100.00;99635.38;5530479;25;20696;-80
2024/04/11 03:26:03;;;;;;;6.03;3.10;;;;;;;4.82;100.00;99639.03;5530686;25;20220;-80
2024/04/11 03:28:32;;;;;;;5.87;3.00;;;;;;;4.80;100.00;99643.47;5530757;25;20228;-80
2024/04/11 03:31:00;;;;;;;5.17;3.00;;;;;;;4.70;100.00;99639.31;5530427;25;20778;-80
2024/04/11 03:33:28;;;;;;;5.13;3.40;;;;;;;4.63;100.00;99637.72;5530396;25;20744;-80
2024/04/11 03:35:55;;;;;;;5.23;3.40;;;;;;;4.66;100.00;99637.69;5529864;25;20316;-80
2024/04/11 03:38:24;;;;;;;3.83;3.20;;;;;;;4.67;100.00;99644.63;5529874;25;20224;-79
2024/04/11 03:40:58;;;;;;;5.07;3.87;;;;;;;4.67;100.00;99644.63;5529665;25;20346;-79
2024/04/11 03:43:27;;;;;;;6.97;2.97;;;;;;;4.64;100.00;99649.91;5530737;25;20262;-79
2024/04/11 03:46:05;;;;;;;6.17;3.30;;;;;;;4.68;100.00;99651.59;5528295;25;20228;-79
2024/04/11 03:48:33;;;;;;;4.87;3.30;;;;;;;4.67;100.00;99654.22;5530698;25;20778;-80
2024/04/11 03:51:06;;;;;;;5.87;3.40;;;;;;;4.62;100.00;99656.09;5529589;25;20728;-80
2024/04/11 03:53:35;;;;;;;5.83;3.20;;;;;;;4.53;100.00;99651.91;5531103;25;20237;-79
2024/04/11 03:56:08;;;;;;;3.50;3.20;;;;;;;4.50;100.00;99665.06;5530512;25;20310;-79
2024/04/11 03:58:35;;;;;;;5.60;2.97;;;;;;;4.45;100.00;99666.91;5530340;25;20237;-79
2024/04/11 04:01:05;;;;;;;3.97;3.17;;;;;;;4.45;100.00;99659.06;5530078;25;20684;-80
2024/04/11 04:03:30;;;;;;;5.10;3.30;;;;;;;4.44;100.00;99653.84;5530217;25;20225;-80
2024/04/11 04:05:58;;;;;;;5.17;3.00;;;;;;;4.42;100.00;99653.91;5528794;25;20268;-79
2024/04/11 04:08:24;;;;;;;3.47;2.90;;;;;;;4.36;100.00;99663.63;5528432;25;20229;-79
2024/04/11 04:10:53;;;;;;;2.90;2.60;;;;;;;4.31;100.00;99661.13;5528643;25;20309;-80
2024/04/11 04:13:21;;;;;;;3.83;2.70;;;;;;;4.25;100.00;99666.47;5528398;25;20263;-79
2024/04/11 04:15:49;;;;;;;4.27;3.07;;;;;;;4.27;100.00;99664.66;5528516;25;20575;-80
2024/04/11 04:18:15;;;;;;;5.20;3.30;;;;;;;4.31;100.00;99668.97;5528695;25;20220;-79
2024/04/11 04:20:44;;;;;;;4.63;2.97;;;;;;;4.27;100.00;99669.91;5528357;25;20707;-79
2024/04/11 04:23:10;;;;;;;5.63;3.27;;;;;;;4.24;100.00;99664.75;5528655;25;20233;-80
2024/04/11 04:25:41;;;;;;;3.80;3.17;;;;;;;4.20;100.00;99670.91;5530616;25;20619;-79
2024/04/11 04:28:07;;;;;;;5.77;4.03;;;;;;;4.18;100.00;99664.88;5531687;25;20721;-79
2024/04/11 04:30:39;;;;;;;4.93;3.73;;;;;;;4.18;100.00;99670.09;5530467;25;20287;-79
2024/04/11 04:33:05;;;;;;;4.30;3.80;;;;;;;4.18;100.00;99675.34;5531728;25;20320;-79
2024/04/11 04:35:33;;;;;;;5.10;3.70;;;;;;;4.17;100.00;99683.22;5531310;25;20234;-79
2024/04/11 04:38:01;;;;;;;7.80;3.70;;;;;;;4.15;100.00;99691.06;5530563;25;20276;-80
2024/04/11 04:40:29;;;;;;;7.23;3.30;;;;;;;4.13;100.00;99689.38;5530422;25;20287;-79
2024/04/11 04:42:56;;;;;;;5.83;3.77;;;;;;;4.11;100.00;99693.78;5531033;25;20284;-79
2024/04/11 04:45:24;;;;;;;7.23;3.40;;;;;;;4.06;100.00;99700.84;5530428;25;20271;-79
2024/04/11 04:47:55;;;;;;;5.00;3.23;;;;;;;4.05;100.00;99702.63;5530377;25;20666;-81
2024/04/11 04:50:20;;;;;;;4.07;3.20;;;;;;;4.03;100.00;99699.16;5530437;25;20304;-79
2024/04/11 04:52:48;;;;;;;5.10;2.97;;;;;;;4.03;100.00;99701.78;5529984;25;20331;-79
2024/04/11 04:55:17;;;;;;;4.50;3.27;;;;;;;3.99;100.00;99702.75;5530709;25;20354;-81
2024/04/11 04:57:45;;;;;;;8.20;3.90;;;;;;;4.00;100.00;99707.06;5527550;25;20239;-80
2024/04/11 05:00:13;;;;;;;4.30;3.60;;;;;;;4.01;100.00;99714.03;5529061;25;20284;-79
2024/04/11 05:02:42;;;;;;;5.10;3.53;;;;;;;4.05;100.00;99720.94;5531333;25;20216;-79
2024/04/11 05:05:11;;;;;;;6.63;3.83;;;;;;;4.06;100.00;99716.56;5529908;25;20221;-78
2024/04/11 05:07:40;;;;;;;6.43;3.80;;;;;;;4.09;100.00;99721.75;5530656;25;20700;-79
2024/04/11 05:10:06;;;;;;;4.67;3.47;;;;;;;4.12;100.00;99719.94;5529706;25;20279;-79
2024/04/11 05:12:43;;;;;;;5.57;3.70;;;;;;;4.15;100.00;99727.72;5529714;25;20237;-79
2024/04/11 05:15:12;;;;;;;3.50;3.10;;;;;;;4.18;100.00;99738.13;5529321;25;20224;-79
2024/04/11 05:17:41;;;;;;;6.83;3.43;;;;;;;4.14;100.00;99730.34;5528774;25;20226;-79
2024/04/11 05:20:17;;;;;;;6.00;3.83;;;;;;;4.14;100.00;99740.81;5527631;25;20334;-79
2024/04/11 05:22:49;;;;;;;5.30;3.63;;;;;;;4.14;100.00;99744.31;5528188;25;20226;-80
2024/04/11 05:25:17;;;;;;;7.67;3.77;;;;;;;4.17;100.00;99741.63;5527680;25;20317;-80
2024/04/11 05:27:48;;;;;;;7.53;4.03;;;;;;;4.26;100.00;99738.84;5526048;25;20222;-79
2024/04/11 05:30:14;;;;;;;6.00;4.10;;;;;;;4.37;100.00;99744.75;5525690;25;20275;-79
2024/04/11 05:32:46;;;;;;;4.97;3.90;;;;;;;4.45;100.00;99748.06;5526629;25;20290;-79
2024/04/11 05:35:12;;;;;;;8.27;4.57;;;;;;;4.50;100.00;99748.84;5525433;25;20276;-80
2024/04/11 05:37:44;;;;;;;8.80;4.03;;;;;;;4.54;100.00;99742.69;5526764;25;20236;-82
2024/04/11 05:40:12;;;;;;;7.83;4.60;;;;;;;4.65;100.00;99751.16;5526232;25;20261;-79
2024/04/11 05:42:44;;;;;;;7.60;4.27;;;;;;;4.73;100.00;99749.25;5528885;25;20226;-79
2024/04/11 05:45:11;;;;;;;7.63;4.50;;;;;;;4.84;100.00;99747.25;5527154;25;20245;-79
2024/04/11 05:47:40;;;;;;;8.87;5.10;;;;;;;4.95;100.00;99744.44;5526826;25;20225;-78
2024/04/11 05:50:06;;;;;;;6.80;4.30;;;;;;;5.09;100.00;99745.88;5526238;25;20346;-79
2024/04/11 05:52:34;;;;;;;8.63;4.43;;;;;;;5.18;100.00;99740.41;5526013;26;20229;-79
2024/04/11 05:55:05;;;;;;;10.17;4.90;;;;;;;5.34;100.00;99743.53;5528991;25;20219;-79
2024/04/11 05:57:41;;;;;;;6.33;4.53;;;;;;;5.45;100.00;99747.63;5529305;25;20265;-79
2024/04/11 06:00:08;;;;;;;7.67;4.90;;;;;;;5.56;100.00;99744.78;5528970;25;20233;-79
2024/04/11 06:02:38;;;;;;;8.53;4.70;;;;;;;5.66;100.00;99747.13;5531024;25;20225;-79
2024/04/11 06:05:07;;;;;;;7.47;5.23;;;;;;;5.74;100.00;99750.44;5529760;25;20226;-80
2024/04/11 06:07:39;;;;;;;7.00;5.33;;;;;;;5.88;100.00;99748.38;5533067;25;20333;-84
2024/04/11 06:10:05;;;;;;;6.13;5.10;;;;;;;5.99;100.00;99748.94;5535278;25;20245;-84
2024/04/11 06:12:33;;;;;;;7.97;5.10;;;;;;;6.14;100.00;99745.94;5537096;25;20237;-84
2024/04/11 06:15:02;;;;;;;8.77;5.30;;;;;;;6.29;100.00;99745.53;5528084;25;20286;-79
2024/04/11 06:17:31;;;;;;;9.87;5.73;;;;;;;6.37;100.00;99753.22;5532401;25;20226;-81
2024/04/11 06:19:56;;;;;;;8.53;4.93;;;;;;;6.49;100.00;99743.25;5532000;25;20978;-82
2024/04/11 06:22:26;;;;;;;8.83;5.63;;;;;;;6.62;100.00;99749.88;5534993;25;20230;-83
2024/04/11 06:24:51;;;;;;;8.83;5.77;;;;;;;6.72;100.00;99740.81;5536103;25;20226;-83
2024/04/11 06:27:19;;;;;;;8.53;5.30;;;;;;;6.90;100.00;99745.53;5532706;25;20277;-83
2024/04/11 06:29:45;;;;;;;7.73;5.23;;;;;;;6.97;100.00;99747.09;5530552;25;20242;-84
2024/04/11 06:32:17;;;;;;;9.67;6.00;;;;;;;7.12;100.00;99743.16;5529530;25;20671;-83
2024/04/11 06:34:43;;;;;;;8.97;5.73;;;;;;;7.14;100.00;99744.81;5528764;25;20221;-84
2024/04/11 06:37:14;;;;;;;9.03;5.47;;;;;;;7.20;100.00;99747.28;5528500;25;20260;-84
2024/04/11 06:39:48;;;;;;;8.90;5.27;;;;;;;7.33;100.00;99746.00;5546005;21;20311;-83
2024/04/11 06:42:17;;;;;;;7.70;5.10;;;;;;;7.44;100.00;99750.03;5443961;25;20230;-83
2024/04/11 06:44:45;;;;;;;6.43;5.30;;;;;;;7.59;100.00;99746.06;5444452;26;20224;-84
2024/04/11 06:47:18;;;;;;;8.13;5.60;;;;;;;7.68;100.00;99743.13;5442498;26;20638;-83
2024/04/11 06:49:44;;;;;;;7.47;5.63;;;;;;;7.77;100.00;99746.31;5442686;26;20469;-79
2024/04/11 06:52:16;;;;;;;9.20;5.30;;;;;;;7.85;100.00;99748.69;5443716;26;20675;-84
2024/04/11 06:54:46;;;;;;;7.33;5.40;;;;;;;7.91;100.00;99746.72;5445185;26;20220;-84
2024/04/11 06:57:15;;;;;;;7.53;5.27;;;;;;;7.92;100.00;99743.19;5444059;26;20280;-85
2024/04/11 06:59:40;;;;;;;7.17;5.13;;;;;;;7.98;100.00;99744.75;5446628;26;20232;-85
2024/04/11 07:02:10;;;;;;;10.73;5.43;;;;;;;8.06;100.00;99735.69;5446209;26;20270;-84
2024/04/11 07:04:38;;;;;;;5.90;4.60;;;;;;;8.20;100.00;99743.16;5445701;26;20324;-85
2024/04/11 07:07:08;;;;;;;7.80;5.20;;;;;;;8.35;100.00;99743.50;5445217;26;20410;-85
2024/04/11 07:09:37;;;;;;;8.10;5.27;;;;;;;8.50;100.00;99750.00;5445986;25;20283;-85
2024/04/11 07:12:10;;;;;;;9.57;5.40;;;;;;;8.67;100.00;99742.31;5444165;26;20228;-85
2024/04/11 07:14:37;;;;;;;8.27;5.37;;;;;;;8.86;100.00;99735.47;5446213;26;20596;-85
2024/04/11 07:17:11;;;;;;;6.67;4.87;;;;;;;8.90;98.49;99727.41;5452965;26;20262;-85
2024/04/11 07:19:42;;;;;;;8.63;5.33;;;;;;;8.98;96.74;99720.06;5452821;26;20283;-85
2024/04/11 07:22:16;;;;;;;9.13;5.40;;;;;;;9.10;96.13;99718.72;5442808;26;20232;-80
2024/04/11 07:24:43;;;;;;;9.27;5.77;;;;;;;9.40;95.84;99728.97;5441816;26;20278;-82
2024/04/11 07:27:12;;;;;;;8.20;5.60;;;;;;;9.54;94.90;99731.06;5433157;26;20283;-82
2024/04/11 07:29:38;;;;;;;7.37;5.33;;;;;;;9.65;93.78;99731.47;5413944;26;20234;-82
2024/04/11 07:32:07;;;;;;;9.63;4.90;;;;;;;9.78;90.88;99717.72;5444993;26;20236;-82
2024/04/11 07:34:33;;;;;;;7.23;4.77;;;;;;;9.91;88.51;99699.59;5449278;26;20316;-82
2024/04/11 07:37:05;;;;;;;8.50;5.00;;;;;;;9.99;88.52;99708.03;5449476;26;20332;-81
2024/04/11 07:39:32;;;;;;;6.27;4.60;;;;;;;10.14;89.22;99723.28;5444784;26;20254;-81
2024/04/11 07:42:18;;;;;;;6.90;4.63;;;;;;;10.22;87.60;99711.44;5445452;26;20683;-81
2024/04/11 07:44:44;;;;;;;6.70;4.10;;;;;;;10.37;84.44;99694.06;5409196;26;20266;-81
2024/04/11 07:47:13;;;;;;;6.13;3.47;;;;;;;10.47;82.40;99705.97;5409152;26;20232;-81
2024/04/11 07:49:40;;;;;;;6.33;4.20;;;;;;;10.64;80.17;99682.31;5410369;26;20240;-81
2024/04/11 07:52:12;;;;;;;6.30;3.60;;;;;;;10.79;80.24;99692.16;5411623;26;20223;-81
2024/04/11 07:54:38;;;;;;;5.97;3.30;;;;;;;11.05;80.38;99683.88;5415396;26;20276;-82
2024/04/11 07:57:08;;;;;;;4.43;3.43;;;;;;;11.21;79.25;99684.91;5415608;26;20233;-81
2024/04/11 07:59:34;;;;;;;7.33;3.90;;;;;;;11.25;79.76;99691.78;5417304;26;20253;-81
2024/04/11 08:02:02;;;;;;;6.50;3.40;;;;;;;11.39;78.36;99681.38;5432962;26;20283;-81
2024/04/11 08:04:27;;;;;;;5.03;3.30;;;;;;;11.34;77.01;99670.16;5446472;26;20244;-78
2024/04/11 08:06:56;;;;;;;7.53;4.53;;;;;;;11.46;78.28;99690.72;5443847;26;20224;-78
2024/04/11 08:09:24;;;;;;;7.40;3.70;;;;;;;11.54;78.02;99688.56;5443156;26;20224;-78
2024/04/11 08:11:52;;;;;;;5.07;3.33;;;;;;;11.58;73.62;99666.31;5444271;26;20243;-78
2024/04/11 08:14:18;;;;;;;5.13;3.70;;;;;;;11.62;75.80;99686.47;5443705;26;20228;-78
2024/04/11 08:16:47;;;;;;;5.50;3.37;;;;;;;11.68;75.82;99691.44;5444248;26;20672;-78
2024/04/11 08:19:13;;;;;;;6.27;3.47;;;;;;;11.85;75.94;99696.75;5434947;26;20770;-78
2024/04/11 08:21:41;;;;;;;4.27;3.17;;;;;;;12.01;75.29;99689.75;5408379;26;20229;-78
2024/04/11 08:24:07;;;;;;;6.40;3.60;;;;;;;12.26;75.14;99684.94;5398667;26;20739;-80
2024/04/11 08:26:38;;;;;;;7.07;3.07;;;;;;;12.41;73.50;99678.84;5395099;26;20232;-80
2024/04/11 08:29:03;;;;;;;5.43;3.13;;;;;;;12.42;74.18;99681.41;5387834;26;20287;-81
2024/04/11 08:31:32;;;;;;;6.40;3.80;;;;;;;12.50;72.06;99663.31;5400384;26;20325;-80
2024/04/11 08:33:58;;;;;;;6.07;3.10;;;;;;;12.49;70.78;99676.63;5408421;26;20244;-81
2024/04/11 08:36:28;;;;;;;5.63;4.10;;;;;;;12.62;74.41;99712.19;5408955;26;20229;-81
2024/04/11 08:38:55;;;;;;;6.67;3.67;;;;;;;12.57;70.44;99669.13;5410062;26;20221;-81
2024/04/11 08:41:23;;;;;;;5.10;3.33;;;;;;;12.56;71.13;99678.03;5414042;26;20280;-81
2024/04/11 08:43:52;;;;;;;4.97;3.20;;;;;;;12.86;71.97;99687.88;5417032;26;20288;-82
2024/04/11 08:46:20;;;;;;;5.20;3.43;;;;;;;13.01;69.22;99670.31;5416076;26;20335;-81
2024/04/11 08:48:46;;;;;;;5.43;3.40;;;;;;;13.04;69.30;99665.69;5416761;26;20236;-80
2024/04/11 08:51:19;;;;;;;4.43;3.00;;;;;;;13.12;67.71;99652.84;5417917;26;20306;-82
2024/04/11 08:53:46;;;;;;;4.27;2.93;;;;;;;13.25;68.56;99668.91;5414264;26;20229;-81
2024/04/11 08:56:16;;;;;;;4.97;3.10;;;;;;;13.22;63.41;99608.03;5441247;26;20331;-80
2024/04/11 08:58:42;;;;;;;4.63;3.17;;;;;;;13.38;66.77;99659.34;5443182;26;20232;-81
2024/04/11 09:01:17;;;;;;;6.17;3.17;;;;;;;13.64;68.83;99677.31;5442211;26;20242;-82
2024/04/11 09:03:46;;;;;;;4.23;3.00;;;;;;;13.72;65.31;99651.16;5441703;26;20228;-77
2024/04/11 09:06:18;;;;;;;3.40;2.23;;;;;;;13.95;64.28;99635.59;5440071;26;20228;-78
2024/04/11 09:08:44;;;;;;;4.17;2.50;;;;;;;13.98;62.75;99623.91;5439994;26;20549;-76
2024/04/11 09:11:14;;;;;;;3.23;2.70;;;;;;;14.18;64.17;99647.53;5438991;26;20318;-77
2024/04/11 09:13:40;;;;;;;6.17;3.00;;;;;;;14.29;62.42;99616.69;5440821;26;20561;-76
2024/04/11 09:16:09;;;;;;;4.60;2.70;;;;;;;14.42;62.60;99627.44;5440230;26;20320;-77
2024/04/11 09:18:37;;;;;;;7.57;3.40;;;;;;;14.51;63.98;99645.50;5439990;26;20727;-76
2024/04/11 09:21:07;;;;;;;7.27;3.03;;;;;;;14.49;63.62;99647.41;5439520;26;20417;-76
2024/04/11 09:23:39;;;;;;;4.30;2.63;;;;;;;14.42;61.50;99625.63;5440290;26;20220;-77
2024/04/11 09:26:07;;;;;;;5.47;2.87;;;;;;;14.74;61.81;99632.47;5440274;25;20312;-77
2024/04/11 09:28:32;;;;;;;4.20;2.50;;;;;;;14.71;60.84;99653.09;5440169;26;20690;-78
2024/04/11 09:31:03;;;;;;;3.70;2.30;;;;;;;14.66;58.01;99628.59;5435957;26;20248;-77
2024/04/11 09:33:31;;;;;;;3.23;1.83;;;;;;;14.67;53.85;99617.00;5433917;26;20272;-77
2024/04/11 09:36:07;;;;;;;4.60;2.37;;;;;;;14.61;53.63;99638.69;5422341;26;20334;-77
2024/04/11 09:38:36;;;;;;;5.13;2.27;;;;;;;14.58;56.13;99673.44;5430656;26;20566;-77
2024/04/11 09:41:10;;;;;;;7.20;2.60;;;;;;;14.64;57.38;99689.03;5435974;26;20720;-77
2024/04/11 09:43:40;;;;;;;3.87;1.97;;;;;;;14.81;55.08;99655.13;5440097;26;20223;-77
2024/04/11 09:46:09;;;;;;;1.90;1.70;;;;;;;14.87;56.36;99675.16;5439487;26;20232;-76
2024/04/11 09:48:38;;;;;;;3.67;1.60;;;;;;;14.95;55.97;99678.19;5441242;26;20240;-79
2024/04/11 09:51:13;;;;;;;5.77;1.67;;;;;;;15.13;53.02;99651.28;5443105;26;20244;-79
2024/04/11 09:53:41;;;;;;;2.90;1.43;;;;;;;15.22;50.43;99661.34;5444501;26;20223;-79
2024/04/11 09:56:13;;;;;;;3.23;1.60;;;;;;;15.11;49.55;99655.00;5445891;26;20569;-79
2024/04/11 09:58:42;;;;;;;3.47;1.80;;;;;;;14.82;49.08;99663.94;5446173;26;20408;-79
2024/04/11 10:01:29;;;;;;;2.67;1.87;;;;;;;14.66;49.79;99665.88;5445687;26;20625;-78
2024/04/11 10:03:58;;;;;;;2.50;1.60;;;;;;;14.75;50.93;99675.94;5444758;26;20229;-79
2024/04/11 10:06:30;;;;;;;2.70;1.87;;;;;;;14.89;51.67;99694.56;5444891;26;20229;-79
2024/04/11 10:09:11;;;;;;;3.17;2.40;;;;;;;14.97;55.16;99719.75;5445073;26;20288;-80
2024/04/11 10:11:40;;;;;;;2.53;1.60;;;;;;;15.06;51.21;99684.59;5444621;26;20291;-80
2024/04/11 10:14:16;;;;;;;2.83;1.80;;;;;;;15.21;51.05;99682.75;5444104;26;20271;-80
2024/04/11 10:16:48;;;;;;;4.30;2.23;;;;;;;15.19;50.17;99669.53;5443463;26;20228;-80
2024/04/11 10:19:26;;;;;;;2.60;1.90;;;;;;;14.99;50.17;99669.94;5442919;26;20288;-81
2024/04/11 10:22:04;;;;;;;4.60;1.87;;;;;;;15.09;51.18;99681.72;5443078;26;20292;-79
2024/04/11 10:24:31;;;;;;;3.30;1.90;;;;;;;15.21;50.66;99680.09;5442356;26;20221;-80
2024/04/11 10:27:10;;;;;;;2.17;1.93;;;;;;;15.35;52.78;99699.63;5443378;26;20252;-79
2024/04/11 10:29:37;;;;;;;4.23;2.10;;;;;;;15.48;51.51;99689.00;5442689;26;20279;-79
2024/04/11 10:32:07;;;;;;;4.33;1.80;;;;;;;15.53;50.53;99682.41;5442254;26;20236;-79
2024/04/11 10:34:34;;;;;;;3.53;1.70;;;;;;;15.77;48.80;99670.16;5442122;26;20669;-80
2024/04/11 10:37:12;;;;;;;4.53;1.70;;;;;;;15.84;45.65;99639.50;5442799;26;20220;-78
2024/04/11 10:39:41;;;;;;;3.80;2.00;;;;;;;15.81;46.38;99654.81;5442660;26;20710;-79
2024/04/11 10:42:10;;;;;;;3.27;1.60;;;;;;;15.79;47.90;99673.59;5443109;26;20228;-79
2024/04/11 10:44:36;;;;;;;2.93;1.50;;;;;;;15.65;47.69;99664.78;5443150;26;20259;-78
2024/04/11 10:47:13;;;;;;;4.53;1.90;;;;;;;15.73;45.41;99678.47;5444301;26;20220;-78
2024/04/11 10:49:41;;;;;;;2.57;1.67;;;;;;;15.51;44.92;99684.34;5443655;26;20821;-78
2024/04/11 10:52:12;;;;;;;4.47;1.80;;;;;;;15.46;44.36;99685.59;5442328;26;20228;-79
2024/04/11 10:54:39;;;;;;;3.93;1.40;;;;;;;15.43;44.73;99680.47;5443891;26;20566;-78
2024/04/11 10:57:12;;;;;;;2.20;1.33;;;;;;;15.44;45.11;99692.81;5445732;26;20767;-78
2024/04/11 10:59:38;;;;;;;2.30;1.40;;;;;;;15.75;47.22;99713.88;5447091;26;20232;-78
2024/04/11 11:02:10;;;;;;;4.23;1.70;;;;;;;16.06;50.32;99735.78;5447217;26;20259;-78
2024/04/11 11:04:43;;;;;;;1.10;1.00;;;;;;;16.19;49.89;99724.19;5447861;26;20258;-79
2024/04/11 11:07:14;;;;;;;3.47;1.87;;;;;;;16.39;50.59;99723.72;5448095;26;20270;-78
2024/04/11 11:09:42;;;;;;;5.23;2.10;;;;;;;16.56;50.78;99725.25;5447267;26;20248;-79
2024/04/11 11:12:11;;;;;;;2.77;1.50;;;;;;;16.61;51.75;99729.31;5447106;26;20224;-78
2024/04/11 11:14:37;;;;;;;3.20;1.80;;;;;;;16.64;45.77;99680.22;5446931;26;20224;-78
2024/04/11 11:17:16;;;;;;;3.03;1.90;;;;;;;16.37;44.78;99671.38;5447080;26;20715;-78
2024/04/11 11:19:42;;;;;;;3.37;1.90;;;;;;;16.14;45.36;99682.75;5447364;26;20722;-78
2024/04/11 11:22:11;;;;;;;3.70;1.80;;;;;;;16.02;44.71;99672.06;5446862;26;20270;-78
2024/04/11 11:24:42;;;;;;;3.73;1.90;;;;;;;16.16;45.06;99684.34;5445125;26;20709;-80
2024/04/11 11:27:11;;;;;;;4.37;1.50;;;;;;;16.18;48.07;99698.47;5444964;26;20707;-80
2024/04/11 11:29:42;;;;;;;4.50;1.90;;;;;;;16.20;47.31;99685.00;5449668;26;20279;-80
2024/04/11 11:32:18;;;;;;;3.37;1.67;;;;;;;16.39;46.68;99677.53;5446511;26;20224;-80
2024/04/11 11:34:46;;;;;;;4.50;2.00;;;;;;;16.54;46.27;99674.66;5445920;26;20220;-80
2024/04/11 11:37:21;;;;;;;3.23;1.67;;;;;;;16.41;44.06;99655.06;5446500;26;20224;-79
2024/04/11 11:39:50;;;;;;;1.97;1.40;;;;;;;16.45;47.01;99679.78;5445624;26;20236;-79
2024/04/11 11:42:23;;;;;;;3.77;1.80;;;;;;;16.60;45.40;99654.69;5445719;26;20267;-78